createdAt,value
2022-11-23T00:01:19.793Z,1.10
2022-11-23T00:04:05.352Z,1.10
2022-11-23T00:06:48.255Z,0.93
2022-11-23T00:09:31.483Z,0.90
2022-11-23T00:12:14.618Z,0.95
2022-11-23T00:14:57.595Z,1.20
2022-11-23T00:17:42.155Z,1.35
2022-11-23T00:23:07.922Z,1.33
2022-11-23T00:25:50.955Z,1.55
2022-11-23T00:28:35.003Z,1.35
2022-11-23T00:34:03.364Z,1.30
2022-11-23T00:36:46.286Z,1.38
2022-11-23T00:39:29.572Z,1.40
2022-11-23T00:42:13.112Z,1.60
2022-11-23T00:44:56.095Z,1.10
2022-11-23T00:47:40.091Z,1.88
2022-11-23T00:50:24.469Z,1.83
2022-11-23T00:53:07.408Z,1.67
2022-11-23T00:55:52.702Z,2.38
2022-11-23T00:58:38.725Z,2.63
2022-11-23T01:01:24.264Z,2.00
2022-11-23T01:04:09.245Z,2.65
2022-11-23T01:06:56.962Z,3.13
2022-11-23T01:09:39.953Z,1.92
2022-11-23T01:12:22.871Z,2.28
2022-11-23T01:15:06.600Z,1.88
2022-11-23T01:17:49.536Z,2.10
2022-11-23T01:20:32.510Z,2.35
2022-11-23T01:23:16.797Z,1.60
2022-11-23T01:26:04.752Z,1.90
2022-11-23T01:28:47.947Z,1.73
2022-11-23T01:31:30.930Z,1.60
2022-11-23T01:34:14.696Z,1.60
2022-11-23T01:36:57.665Z,1.50
2022-11-23T01:39:45.277Z,1.50
2022-11-23T01:42:44.241Z,2.30
2022-11-23T01:45:36.633Z,2.10
2022-11-23T01:48:24.970Z,2.00
2022-11-23T01:51:12.369Z,1.73
2022-11-23T01:53:58.900Z,1.60
2022-11-23T01:56:47.228Z,1.40
2022-11-23T01:59:32.467Z,1.48
2022-11-23T02:02:16.868Z,1.65
2022-11-23T02:05:01.775Z,1.80
2022-11-23T02:07:44.773Z,1.92
2022-11-23T02:10:32.708Z,1.50
2022-11-23T02:13:17.259Z,1.20
2022-11-23T02:16:03.221Z,1.00
2022-11-23T02:18:49.313Z,1.20
2022-11-23T02:21:34.363Z,1.00
2022-11-23T02:24:26.575Z,1.30
2022-11-23T02:27:11.007Z,1.10
2022-11-23T02:29:55.510Z,0.93
2022-11-23T02:35:22.256Z,0.98
2022-11-23T02:38:07.516Z,1.50
2022-11-23T02:40:50.472Z,1.38
2022-11-23T02:43:35.060Z,1.40
2022-11-23T02:49:01.890Z,1.00
2022-11-23T02:51:44.825Z,1.10
2022-11-23T02:54:28.092Z,1.45
2022-11-23T02:57:11.147Z,1.23
2022-11-23T03:02:40.866Z,1.17
2022-11-23T03:05:23.849Z,1.30
2022-11-23T03:08:08.029Z,1.23
2022-11-23T03:10:51.113Z,1.17
2022-11-23T03:16:19.900Z,1.20
2022-11-23T03:19:04.532Z,1.58
2022-11-23T03:21:48.547Z,1.20
2022-11-23T03:24:31.611Z,1.55
2022-11-23T03:27:16.225Z,1.75
2022-11-23T03:30:00.046Z,1.75
2022-11-23T03:35:28.935Z,1.80
2022-11-23T03:38:29.731Z,2.30
2022-11-23T03:41:13.696Z,2.80
2022-11-23T03:44:05.216Z,2.65
2022-11-23T03:46:50.454Z,2.72
2022-11-23T03:49:34.889Z,2.80
2022-11-23T03:52:19.321Z,2.13
2022-11-23T03:55:03.641Z,2.00
2022-11-23T03:57:48.800Z,2.05
2022-11-23T04:00:32.604Z,2.53
2022-11-23T04:03:15.952Z,2.83
2022-11-23T04:06:29.565Z,3.17
2022-11-23T04:09:19.572Z,2.20
2022-11-23T04:12:33.597Z,2.30
2022-11-23T04:15:16.560Z,2.00
2022-11-23T04:17:59.800Z,2.25
2022-11-23T04:20:42.860Z,1.95
2022-11-23T04:23:27.383Z,1.60
2022-11-23T04:28:58.203Z,2.25
2022-11-23T04:31:41.413Z,2.03
2022-11-23T04:34:33.345Z,1.75
2022-11-23T04:37:19.356Z,2.40
2022-11-23T04:40:04.232Z,1.77
2022-11-23T04:43:09.596Z,1.73
2022-11-23T04:45:54.221Z,2.00
2022-11-23T04:48:44.001Z,1.92
2022-11-23T04:51:27.010Z,1.95
2022-11-23T04:54:11.131Z,1.67
2022-11-23T04:57:04.168Z,1.33
2022-11-23T04:59:47.385Z,1.27
2022-11-23T05:02:31.457Z,1.48
2022-11-23T05:05:32.782Z,1.20
2022-11-23T05:08:16.802Z,1.00
2022-11-23T05:11:11.414Z,0.93
2022-11-23T05:13:56.095Z,1.20
2022-11-23T05:16:39.144Z,1.20
2022-11-23T05:19:22.157Z,1.30
2022-11-23T05:22:05.266Z,1.50
2022-11-23T05:24:50.842Z,1.70
2022-11-23T05:27:37.575Z,1.85
2022-11-23T05:30:22.415Z,2.13
2022-11-23T05:33:05.719Z,1.90
2022-11-23T05:35:48.808Z,2.20
2022-11-23T05:38:33.141Z,2.00
2022-11-23T05:41:18.951Z,1.60
2022-11-23T05:44:02.848Z,1.80
2022-11-23T05:46:48.256Z,1.83
2022-11-23T05:49:32.374Z,1.50
2022-11-23T05:52:17.051Z,1.35
2022-11-23T05:55:01.934Z,1.20
2022-11-23T05:57:46.802Z,1.15
2022-11-23T06:00:29.828Z,1.10
2022-11-23T06:03:21.376Z,1.00
2022-11-23T06:06:04.617Z,1.00
2022-11-23T06:08:54.002Z,1.38
2022-11-23T06:11:37.040Z,1.80
2022-11-23T06:14:25.838Z,1.83
2022-11-23T06:17:09.089Z,1.90
2022-11-23T06:20:00.835Z,1.73
2022-11-23T06:25:26.923Z,1.50
2022-11-23T06:28:19.508Z,1.38
2022-11-23T06:31:07.019Z,1.55
2022-11-23T06:33:53.655Z,1.33
2022-11-23T06:36:38.063Z,1.67
2022-11-23T06:39:21.030Z,1.83
2022-11-23T06:42:30.901Z,1.30
2022-11-23T06:45:09.848Z,1.40
2022-11-23T06:47:55.844Z,1.05
2022-11-23T06:50:38.929Z,1.35
2022-11-23T06:53:23.263Z,1.42
2022-11-23T06:56:12.356Z,1.40
2022-11-23T06:58:55.626Z,1.40
2022-11-23T07:01:42.615Z,1.30
2022-11-23T07:04:27.861Z,1.60
2022-11-23T07:07:11.113Z,1.42
2022-11-23T07:10:07.044Z,1.95
2022-11-23T07:13:04.836Z,1.50
2022-11-23T07:15:48.240Z,1.25
2022-11-23T07:21:18.129Z,1.40
2022-11-23T07:24:02.269Z,1.40
2022-11-23T07:26:47.013Z,1.50
2022-11-23T07:29:30.615Z,1.20
2022-11-23T07:32:15.035Z,1.23
2022-11-23T07:34:58.023Z,1.40
2022-11-23T07:37:42.586Z,2.25
2022-11-23T07:40:25.643Z,1.95
2022-11-23T07:43:11.620Z,1.70
2022-11-23T07:45:56.430Z,1.63
2022-11-23T07:48:39.430Z,1.73
2022-11-23T07:51:22.392Z,1.98
2022-11-23T07:54:05.496Z,2.60
2022-11-23T07:56:48.415Z,1.88
2022-11-23T07:59:33.014Z,1.90
2022-11-23T08:02:17.238Z,1.50
2022-11-23T08:05:00.375Z,1.75
2022-11-23T08:07:45.069Z,2.08
2022-11-23T08:10:28.892Z,1.73
2022-11-23T08:13:11.893Z,1.98
2022-11-23T08:15:56.270Z,2.20
2022-11-23T08:18:39.321Z,2.25
2022-11-23T08:21:22.323Z,2.03
2022-11-23T08:24:05.453Z,1.80
2022-11-23T08:26:48.408Z,1.83
2022-11-23T08:29:31.830Z,1.90
2022-11-23T08:32:16.233Z,1.60
2022-11-23T08:34:59.204Z,1.65
2022-11-23T08:37:42.218Z,1.50
2022-11-23T08:40:25.988Z,1.65
2022-11-23T08:43:09.165Z,1.63
2022-11-23T08:46:00.166Z,1.80
2022-11-23T08:48:47.683Z,1.42
2022-11-23T08:51:30.672Z,1.33
2022-11-23T08:54:13.585Z,2.05
2022-11-23T08:56:56.566Z,2.60
2022-11-23T08:59:39.508Z,2.00
2022-11-23T09:02:22.501Z,2.03
2022-11-23T09:05:07.728Z,2.40
2022-11-23T09:07:50.774Z,2.00
2022-11-23T09:10:33.950Z,2.50
2022-11-23T09:13:16.974Z,2.60
2022-11-23T09:16:00.268Z,2.20
2022-11-23T09:18:43.215Z,2.38
2022-11-23T09:21:30.804Z,2.28
2022-11-23T09:24:14.322Z,2.50
2022-11-23T09:26:58.443Z,3.08
2022-11-23T09:29:41.374Z,2.85
2022-11-23T09:32:24.359Z,2.85
2022-11-23T09:35:08.316Z,2.72
2022-11-23T09:37:58.453Z,3.25
2022-11-23T09:40:42.192Z,2.60
2022-11-23T09:43:41.739Z,2.97
2022-11-23T09:46:37.125Z,2.53
2022-11-23T09:49:22.154Z,3.00
2022-11-23T09:52:11.015Z,2.65
2022-11-23T09:55:00.159Z,3.17
2022-11-23T09:57:45.921Z,3.60
2022-11-23T10:00:35.617Z,3.42
2022-11-23T10:03:19.601Z,3.33
2022-11-23T10:06:08.431Z,3.72
2022-11-23T10:09:07.938Z,3.33
2022-11-23T10:12:14.934Z,2.92
2022-11-23T10:15:10.999Z,2.92
2022-11-23T10:18:17.438Z,2.85
2022-11-23T10:21:07.498Z,4.03
2022-11-23T10:23:56.077Z,4.05
2022-11-23T10:26:43.351Z,6.20
2022-11-23T10:29:31.672Z,6.60
2022-11-23T10:32:27.775Z,5.82
2022-11-23T10:35:14.548Z,4.50
2022-11-23T10:38:15.051Z,5.18
2022-11-23T10:41:08.345Z,4.10
2022-11-23T10:43:57.547Z,3.40
2022-11-23T10:46:42.237Z,4.68
2022-11-23T10:49:27.624Z,4.00
2022-11-23T10:52:29.023Z,4.57
2022-11-23T10:55:15.578Z,4.70
2022-11-23T10:57:59.612Z,3.90
2022-11-23T11:00:43.919Z,3.35
2022-11-23T11:03:32.362Z,4.18
2022-11-23T11:06:23.355Z,5.15
2022-11-23T11:09:18.917Z,5.13
2022-11-23T11:12:02.220Z,4.82
2022-11-23T11:15:05.179Z,4.45
2022-11-23T11:17:57.281Z,6.03
2022-11-23T11:20:47.042Z,4.50
2022-11-23T11:23:31.871Z,4.00
2022-11-23T11:26:22.038Z,4.47
2022-11-23T11:29:10.014Z,4.47
2022-11-23T11:31:58.832Z,4.75
2022-11-23T11:34:47.084Z,4.57
2022-11-23T11:37:36.516Z,3.78
2022-11-23T11:40:24.730Z,3.08
2022-11-23T11:43:15.253Z,3.67
2022-11-23T11:49:10.070Z,3.10
2022-11-23T11:51:56.425Z,4.22
2022-11-23T11:54:50.117Z,4.25
2022-11-23T11:57:37.479Z,3.38
2022-11-23T12:00:21.954Z,3.05
2022-11-23T12:03:16.489Z,2.70
2022-11-23T12:06:07.300Z,2.38
2022-11-23T12:09:00.934Z,3.40
2022-11-23T12:11:45.665Z,2.20
2022-11-23T12:14:28.809Z,2.00
2022-11-23T12:17:33.841Z,3.85
2022-11-23T12:20:25.579Z,3.58
2022-11-23T12:23:20.864Z,2.88
2022-11-23T12:26:23.641Z,2.50
2022-11-23T12:29:45.923Z,3.13
2022-11-23T12:32:44.399Z,3.58
2022-11-23T12:35:47.474Z,3.67
2022-11-23T12:38:32.345Z,4.65
2022-11-23T12:41:40.856Z,4.30
2022-11-23T12:44:48.698Z,4.18
2022-11-23T12:47:43.290Z,3.58
2022-11-23T12:50:35.427Z,4.53
2022-11-23T12:53:35.600Z,4.40
2022-11-23T12:56:32.300Z,3.13
2022-11-23T12:59:15.722Z,2.85
2022-11-23T13:02:05.027Z,3.80
2022-11-23T13:05:18.846Z,3.70
2022-11-23T13:08:23.012Z,5.32
2022-11-23T13:11:19.952Z,3.58
2022-11-23T13:14:17.742Z,3.97
2022-11-23T13:17:16.559Z,3.78
2022-11-23T13:20:16.474Z,3.40
2022-11-23T13:23:01.517Z,3.00
2022-11-23T13:25:44.547Z,3.72
2022-11-23T13:28:31.770Z,4.40
2022-11-23T13:31:31.299Z,3.40
2022-11-23T13:34:46.160Z,3.28
2022-11-23T13:37:29.131Z,3.22
2022-11-23T13:40:23.557Z,4.32
2022-11-23T13:43:16.424Z,4.55
2022-11-23T13:46:23.082Z,3.42
2022-11-23T13:49:39.194Z,2.97
2022-11-23T13:52:36.265Z,3.42
2022-11-23T13:55:21.950Z,7.00
2022-11-23T13:58:47.519Z,5.50
2022-11-23T14:02:19.457Z,6.85
2022-11-23T14:05:32.317Z,3.95
2022-11-23T14:08:20.324Z,2.80
2022-11-23T14:11:12.738Z,3.90
2022-11-23T14:13:59.692Z,3.22
2022-11-23T14:17:08.886Z,2.90
2022-11-23T14:20:18.706Z,3.55
2022-11-23T14:23:18.253Z,3.85
2022-11-23T14:26:26.937Z,4.43
2022-11-23T14:29:52.753Z,3.65
2022-11-23T14:33:04.340Z,3.75
2022-11-23T14:35:55.061Z,2.90
2022-11-23T14:39:18.193Z,2.78
2022-11-23T14:42:06.496Z,2.63
2022-11-23T14:44:50.829Z,2.72
2022-11-23T14:47:34.075Z,2.88
2022-11-23T14:50:25.931Z,3.92
2022-11-23T14:53:12.155Z,6.40
2022-11-23T14:55:55.520Z,6.05
2022-11-23T14:58:40.004Z,5.72
2022-11-23T15:01:26.579Z,5.00
2022-11-23T15:04:13.734Z,4.43
2022-11-23T15:07:03.236Z,4.82
2022-11-23T15:09:52.030Z,4.25
2022-11-23T15:12:44.338Z,4.68
2022-11-23T15:15:31.112Z,4.43
2022-11-23T15:18:14.531Z,3.67
2022-11-23T15:20:59.801Z,3.25
2022-11-23T15:23:45.890Z,3.15
2022-11-23T15:29:36.419Z,3.30
2022-11-23T15:32:31.168Z,4.22
2022-11-23T15:35:17.075Z,4.70
2022-11-23T15:38:01.846Z,4.05
2022-11-23T15:40:49.339Z,3.70
2022-11-23T15:43:32.268Z,3.50
2022-11-23T15:46:15.487Z,3.42
2022-11-23T15:49:00.289Z,3.70
2022-11-23T15:51:45.969Z,3.30
2022-11-23T15:54:33.512Z,3.17
2022-11-23T15:57:21.941Z,3.08
2022-11-23T16:00:07.645Z,3.05
2022-11-23T16:03:22.453Z,2.70
2022-11-23T16:06:26.147Z,3.33
2022-11-23T16:09:55.948Z,3.33
2022-11-23T16:12:49.892Z,2.75
2022-11-23T16:15:44.096Z,2.63
2022-11-23T16:18:31.533Z,2.58
2022-11-23T16:21:18.303Z,2.70
2022-11-23T16:24:02.710Z,3.42
2022-11-23T16:26:45.706Z,4.20
2022-11-23T16:29:34.801Z,3.55
2022-11-23T16:32:26.586Z,4.18
2022-11-23T16:35:18.450Z,4.40
2022-11-23T16:38:01.452Z,5.38
2022-11-23T16:40:48.151Z,3.95
2022-11-23T16:43:31.315Z,2.92
2022-11-23T16:46:14.388Z,3.28
2022-11-23T16:48:59.345Z,3.15
2022-11-23T16:51:42.339Z,4.05
2022-11-23T16:54:25.805Z,3.88
2022-11-23T16:57:16.808Z,3.08
2022-11-23T17:00:02.674Z,2.70
2022-11-23T17:02:45.967Z,2.88
2022-11-23T17:05:28.972Z,3.70
2022-11-23T17:08:12.257Z,4.20
2022-11-23T17:10:55.222Z,3.60
2022-11-23T17:13:39.696Z,3.05
2022-11-23T17:16:24.674Z,3.25
2022-11-23T17:19:15.179Z,3.13
2022-11-23T17:21:58.232Z,3.25
2022-11-23T17:24:41.210Z,3.08
2022-11-23T17:27:25.841Z,3.83
2022-11-23T17:32:55.820Z,4.03
2022-11-23T17:35:39.429Z,5.30
2022-11-23T17:38:24.699Z,5.17
2022-11-23T17:41:07.625Z,5.50
2022-11-23T17:43:50.638Z,5.10
2022-11-23T17:46:35.038Z,4.25
2022-11-23T17:49:21.010Z,4.43
2022-11-23T17:52:04.033Z,4.50
2022-11-23T17:54:47.043Z,4.57
2022-11-23T17:57:29.959Z,4.70
2022-11-23T18:00:18.426Z,5.65
2022-11-23T18:03:02.752Z,5.85
2022-11-23T18:05:45.736Z,5.20
2022-11-23T18:08:28.777Z,4.40
2022-11-23T18:11:12.284Z,3.83
2022-11-23T18:13:55.392Z,3.90
2022-11-23T18:16:38.366Z,4.07
2022-11-23T18:19:22.909Z,3.90
2022-11-23T18:24:48.986Z,4.70
2022-11-23T18:27:31.997Z,4.57
2022-11-23T18:30:17.134Z,4.63
2022-11-23T18:33:00.161Z,5.35
2022-11-23T18:35:44.531Z,4.97
2022-11-23T18:38:27.518Z,5.05
2022-11-23T18:41:10.542Z,5.53
2022-11-23T18:43:53.662Z,5.65
2022-11-23T18:46:36.903Z,5.28
2022-11-23T18:49:19.975Z,5.32
2022-11-23T18:52:04.413Z,5.38
2022-11-23T18:54:47.410Z,5.22
2022-11-23T18:57:30.388Z,4.68
2022-11-23T19:00:15.936Z,5.88
2022-11-23T19:03:00.914Z,5.00
2022-11-23T19:05:43.860Z,5.07
2022-11-23T19:08:28.194Z,4.63
2022-11-23T19:11:16.298Z,5.05
2022-11-23T19:14:01.630Z,4.10
2022-11-23T19:16:44.588Z,4.53
2022-11-23T19:19:27.728Z,3.33
2022-11-23T19:22:10.659Z,3.50
2022-11-23T19:24:55.056Z,3.40
2022-11-23T19:27:38.269Z,3.05
2022-11-23T19:30:21.244Z,2.83
2022-11-23T19:33:04.217Z,2.50
2022-11-23T19:35:47.185Z,2.42
2022-11-23T19:38:32.372Z,2.65
2022-11-23T19:41:17.147Z,2.30
2022-11-23T19:44:01.614Z,2.10
2022-11-23T19:49:27.449Z,1.75
2022-11-23T19:52:10.378Z,1.90
2022-11-23T19:54:53.325Z,1.90
2022-11-23T19:57:37.675Z,2.78
2022-11-23T20:00:20.688Z,2.47
2022-11-23T20:03:03.708Z,2.25
2022-11-23T20:05:55.786Z,2.20
2022-11-23T20:08:38.869Z,2.35
2022-11-23T20:11:21.833Z,2.15
2022-11-23T20:14:07.170Z,2.08
2022-11-23T20:16:50.202Z,2.00
2022-11-23T20:19:33.384Z,1.92
2022-11-23T20:22:16.539Z,1.90
2022-11-23T20:25:00.506Z,2.10
2022-11-23T20:27:43.494Z,2.15
2022-11-23T20:30:27.823Z,1.48
2022-11-23T20:33:11.214Z,1.63
2022-11-23T20:35:54.166Z,1.80
2022-11-23T20:38:38.798Z,2.55
2022-11-23T20:41:24.497Z,2.30
2022-11-23T20:44:10.691Z,2.50
2022-11-23T20:47:03.273Z,2.28
2022-11-23T20:49:46.682Z,1.80
2022-11-23T20:52:29.658Z,1.50
2022-11-23T20:55:12.618Z,1.67
2022-11-23T20:57:55.737Z,1.80
2022-11-23T21:00:38.716Z,1.75
2022-11-23T21:03:23.219Z,1.70
2022-11-23T21:06:07.942Z,1.60
2022-11-23T21:11:51.586Z,1.75
2022-11-23T21:14:34.859Z,2.17
2022-11-23T21:17:18.035Z,1.90
2022-11-23T21:20:02.378Z,1.80
2022-11-23T21:22:45.353Z,1.77
2022-11-23T21:25:28.284Z,1.50
2022-11-23T21:28:11.325Z,1.83
2022-11-23T21:30:54.351Z,2.30
2022-11-23T21:33:37.654Z,1.58
2022-11-23T21:36:23.325Z,1.60
2022-11-23T21:39:08.530Z,1.50
2022-11-23T21:41:53.455Z,1.60
2022-11-23T21:44:36.735Z,1.80
2022-11-23T21:47:19.870Z,1.70
2022-11-23T21:50:03.236Z,1.40
2022-11-23T21:52:47.518Z,1.38
2022-11-23T21:55:31.396Z,1.20
2022-11-23T21:58:14.320Z,1.17
2022-11-23T22:01:04.537Z,1.10
2022-11-23T22:03:49.063Z,1.60
2022-11-23T22:06:32.259Z,1.55
2022-11-23T22:09:17.061Z,2.00
2022-11-23T22:12:00.038Z,2.10
2022-11-23T22:14:42.963Z,2.17
2022-11-23T22:17:25.914Z,2.85
2022-11-23T22:20:10.683Z,1.90
2022-11-23T22:22:53.703Z,1.73
2022-11-23T22:25:38.081Z,2.10
2022-11-23T22:28:21.508Z,1.83
2022-11-23T22:31:05.245Z,1.80
2022-11-23T22:33:49.152Z,1.85
2022-11-23T22:36:32.364Z,1.95
2022-11-23T22:39:15.320Z,2.10
2022-11-23T22:41:59.590Z,1.95
2022-11-23T22:44:42.583Z,1.85
2022-11-23T22:47:25.612Z,1.50
2022-11-23T22:50:09.354Z,1.67
2022-11-23T22:52:52.604Z,2.03
2022-11-23T22:55:35.574Z,2.55
2022-11-23T22:58:20.346Z,2.67
2022-11-23T23:01:06.846Z,3.00
2022-11-23T23:03:52.981Z,7.55
2022-11-23T23:06:36.050Z,5.57
2022-11-23T23:09:19.129Z,4.20
2022-11-23T23:12:02.515Z,3.35
2022-11-23T23:14:46.887Z,3.03
2022-11-23T23:17:29.796Z,3.60
2022-11-23T23:20:12.937Z,3.40
2022-11-23T23:22:55.858Z,3.80
2022-11-23T23:25:38.907Z,4.07
2022-11-23T23:28:21.868Z,6.30
2022-11-23T23:31:08.380Z,4.97
2022-11-23T23:33:53.577Z,4.20
2022-11-23T23:36:37.110Z,4.45
2022-11-23T23:39:20.095Z,4.53
2022-11-23T23:42:03.429Z,4.50
2022-11-23T23:44:46.425Z,9.32
2022-11-23T23:47:32.106Z,10.38
2022-11-23T23:50:15.152Z,12.13
2022-11-23T23:52:58.072Z,15.65
2022-11-23T23:55:41.051Z,15.20
2022-11-23T23:58:23.994Z,16.92
